Wawasee Village, IN

10:46 PM EST on December 02, 2016 (GMT -0500)
APRSWXNET | | Change Station

Elev 885 ft 41.41 °N, 85.79 °W | Updated 57 days ago

Overcast
Overcast
73.0 °F
Feels Like 73 °F
N
2.0
Wind Variable Wind from North
Gusts 5.0 mph

Today
High -- | Low -- °F
--% Chance of Precip.
Yesterday
High -- | Low -- °F
Precip. -- in
Pressure 30.30 in
Visibility 10.0 miles
Clouds Overcast 3600 ft
Heat Index 73 °F
Dew Point 66.0 °F
Humidity 80%
Rainfall in
Snow Depth Not available.
7:51 AM 5:14 PM
Waxing Crescent, 12% visible
METAR KGSH 030253Z AUTO 28006KT 10SM OVC036 02/M03 A3028 RMK AO2 SLP261 T00221033 51016
Pressure 30.30 in
Visibility 10.0 miles
Clouds Overcast 3600 ft
Heat Index 73 °F
Dew Point 66.0 °F
Humidity 80%
Rainfall in
Snow Depth Not available.
7:51 AM 5:14 PM
Waxing Crescent, 12% visible
METAR KGSH 030253Z AUTO 28006KT 10SM OVC036 02/M03 A3028 RMK AO2 SLP261 T00221033 51016

10-Day Weather Forecast

Almanac

Astronomy

Dec. 02, 2016 Rise Set
Actual Time
Civil Twilight
Nautical Twilight
Astronomical Twilight
Moon
Length of Visible Light
Length of Day
Tomorrow will be .
, % of the Moon is Illuminated

Today's Extremes

State Highs State Lows

Community

WunderPhotos

Upload Photos

1,955,405 photos uploaded!

WunderBlog® & News

Nearby

Air Quality

  Air Quality AQ Index Pollutant
Not available.

Snow Depth

Station Depth Elevation

Earthquake Activity

City Distance Mag. Time & Date
Minimum magnitude displayed is 2.5.

Coastal Water Temperatures

Place Temperature

Stations

Nearby Weather Stations

Station Location Temp. Windchill Dew Point Humidity Wind Precip. Elev Updated Type
                   

Watches & Warnings

There are currently no watches in effect.